sensor_id;sensor_type;location;lat;lon;timestamp;pressure;altitude;pressure_sealevel;temperature;humidity
47785;BME280;35233;55.686;37.848;2024-02-23T00:02:04;99996.88;;;18.37;31.32
47785;BME280;35233;55.686;37.848;2024-02-23T00:04:30;99999.56;;;18.37;31.37
47785;BME280;35233;55.686;37.848;2024-02-23T00:06:56;99997.84;;;18.36;31.55
47785;BME280;35233;55.686;37.848;2024-02-23T00:09:21;99996.94;;;18.35;31.33
47785;BME280;35233;55.686;37.848;2024-02-23T00:11:47;99997.91;;;18.34;31.39
47785;BME280;35233;55.686;37.848;2024-02-23T00:14:15;99996.03;;;18.36;31.47
47785;BME280;35233;55.686;37.848;2024-02-23T00:16:43;99996.38;;;18.30;31.28
47785;BME280;35233;55.686;37.848;2024-02-23T00:19:09;100005.06;;;18.33;31.31
47785;BME280;35233;55.686;37.848;2024-02-23T00:21:38;100006.09;;;18.31;31.25
47785;BME280;35233;55.686;37.848;2024-02-23T00:24:05;100010.31;;;18.35;31.25
47785;BME280;35233;55.686;37.848;2024-02-23T00:26:31;100006.72;;;18.36;31.29
47785;BME280;35233;55.686;37.848;2024-02-23T00:28:57;100005.25;;;18.30;31.17
47785;BME280;35233;55.686;37.848;2024-02-23T00:31:22;99995.63;;;18.26;31.27
47785;BME280;35233;55.686;37.848;2024-02-23T00:33:48;100005.16;;;18.32;31.17
47785;BME280;35233;55.686;37.848;2024-02-23T00:36:16;99999.72;;;18.33;31.19
47785;BME280;35233;55.686;37.848;2024-02-23T00:38:42;99997.13;;;18.32;31.17
47785;BME280;35233;55.686;37.848;2024-02-23T00:41:07;100002.41;;;18.33;31.04
47785;BME280;35233;55.686;37.848;2024-02-23T00:43:40;100002.41;;;18.33;30.99
47785;BME280;35233;55.686;37.848;2024-02-23T00:46:07;99996.19;;;18.33;31.18
47785;BME280;35233;55.686;37.848;2024-02-23T00:48:33;100006.97;;;18.31;31.07
47785;BME280;35233;55.686;37.848;2024-02-23T00:50:58;100007.91;;;18.30;31.04
47785;BME280;35233;55.686;37.848;2024-02-23T00:53:24;100001.38;;;18.36;31.05
47785;BME280;35233;55.686;37.848;2024-02-23T00:55:49;100004.22;;;18.33;31.01
47785;BME280;35233;55.686;37.848;2024-02-23T00:58:15;100013.97;;;18.34;31.04
47785;BME280;35233;55.686;37.848;2024-02-23T01:00:41;100003.19;;;18.36;31.08
47785;BME280;35233;55.686;37.848;2024-02-23T01:03:07;100011.28;;;18.34;30.97
47785;BME280;35233;55.686;37.848;2024-02-23T01:05:32;100000.06;;;18.27;31.02
47785;BME280;35233;55.686;37.848;2024-02-23T01:07:58;100006.78;;;18.35;30.92
47785;BME280;35233;55.686;37.848;2024-02-23T01:10:24;100000.75;;;18.31;30.98
47785;BME280;35233;55.686;37.848;2024-02-23T01:12:49;100005.16;;;18.32;30.92
47785;BME280;35233;55.686;37.848;2024-02-23T01:15:15;100013.25;;;18.30;30.91
47785;BME280;35233;55.686;37.848;2024-02-23T01:17:40;100011.38;;;18.32;30.94
47785;BME280;35233;55.686;37.848;2024-02-23T01:20:06;100015.94;;;18.30;30.75
47785;BME280;35233;55.686;37.848;2024-02-23T01:22:32;100014.19;;;18.29;30.83
47785;BME280;35233;55.686;37.848;2024-02-23T01:24:57;100021.28;;;18.30;30.81
47785;BME280;35233;55.686;37.848;2024-02-23T01:27:23;100013.25;;;18.30;30.79
47785;BME280;35233;55.686;37.848;2024-02-23T01:29:49;100008.84;;;18.29;30.88
47785;BME280;35233;55.686;37.848;2024-02-23T01:32:14;100016.81;;;18.31;30.75
47785;BME280;35233;55.686;37.848;2024-02-23T01:34:40;100014.97;;;18.31;30.94
47785;BME280;35233;55.686;37.848;2024-02-23T01:37:05;100009.47;;;18.35;30.73
47785;BME280;35233;55.686;37.848;2024-02-23T01:39:31;100018.34;;;18.35;30.73
47785;BME280;35233;55.686;37.848;2024-02-23T01:41:57;100008.59;;;18.34;30.77
47785;BME280;35233;55.686;37.848;2024-02-23T01:44:22;100002.41;;;18.33;30.71
47785;BME280;35233;55.686;37.848;2024-02-23T01:46:49;100004.97;;;18.35;30.72
47785;BME280;35233;55.686;37.848;2024-02-23T01:49:15;100004.22;;;18.33;30.81
47785;BME280;35233;55.686;37.848;2024-02-23T01:51:41;100008.78;;;18.31;30.66
47785;BME280;35233;55.686;37.848;2024-02-23T01:54:07;100012.94;;;18.37;30.72
47785;BME280;35233;55.686;37.848;2024-02-23T01:56:33;100010.31;;;18.35;30.51
47785;BME280;35233;55.686;37.848;2024-02-23T01:59:02;100018.44;;;18.33;30.69
47785;BME280;35233;55.686;37.848;2024-02-23T02:01:31;100018.34;;;18.35;30.55
47785;BME280;35233;55.686;37.848;2024-02-23T02:03:58;100013.97;;;18.34;30.59
47785;BME280;35233;55.686;37.848;2024-02-23T02:06:24;100010.31;;;18.35;30.66
47785;BME280;35233;55.686;37.848;2024-02-23T02:08:50;100009.56;;;18.33;30.66
47785;BME280;35233;55.686;37.848;2024-02-23T02:11:16;100012.13;;;18.35;30.50
47785;BME280;35233;55.686;37.848;2024-02-23T02:13:41;100019.31;;;18.34;30.51
47785;BME280;35233;55.686;37.848;2024-02-23T02:16:07;100006.09;;;18.31;30.45
47785;BME280;35233;55.686;37.848;2024-02-23T02:18:33;100008.78;;;18.31;30.49
47785;BME280;35233;55.686;37.848;2024-02-23T02:20:58;100012.94;;;18.37;30.57
47785;BME280;35233;55.686;37.848;2024-02-23T02:23:24;100016.72;;;18.32;30.52
47785;BME280;35233;55.686;37.848;2024-02-23T02:25:58;100016.72;;;18.32;30.55
47785;BME280;35233;55.686;37.848;2024-02-23T02:28:24;100012.13;;;18.35;30.45
47785;BME280;35233;55.686;37.848;2024-02-23T02:30:53;100014.97;;;18.31;30.50
47785;BME280;35233;55.686;37.848;2024-02-23T02:33:19;100018.50;;;18.32;30.50
47785;BME280;35233;55.686;37.848;2024-02-23T02:35:44;100020.16;;;18.35;30.50
47785;BME280;35233;55.686;37.848;2024-02-23T02:38:11;100010.50;;;18.32;30.60
47785;BME280;35233;55.686;37.848;2024-02-23T02:40:37;100019.47;;;18.31;30.40
47785;BME280;35233;55.686;37.848;2024-02-23T02:43:03;100022.16;;;18.31;30.40
47785;BME280;35233;55.686;37.848;2024-02-23T02:45:28;100014.97;;;18.31;30.42
47785;BME280;35233;55.686;37.848;2024-02-23T02:47:54;100015.78;;;18.33;30.51
47785;BME280;35233;55.686;37.848;2024-02-23T02:50:19;100012.13;;;18.35;30.46
47785;BME280;35233;55.686;37.848;2024-02-23T02:52:45;100017.59;;;18.33;30.47
47785;BME280;35233;55.686;37.848;2024-02-23T02:55:11;100019.31;;;18.34;30.41
47785;BME280;35233;55.686;37.848;2024-02-23T02:57:37;100012.47;;;18.28;30.33
47785;BME280;35233;55.686;37.848;2024-02-23T03:00:03;100014.28;;;18.28;30.45
47785;BME280;35233;55.686;37.848;2024-02-23T03:02:34;100003.59;;;18.28;30.46
47785;BME280;35233;55.686;37.848;2024-02-23T03:05:00;100017.75;;;18.30;30.56
47785;BME280;35233;55.686;37.848;2024-02-23T03:07:31;100014.28;;;18.28;30.38
47785;BME280;35233;55.686;37.848;2024-02-23T03:09:56;100011.38;;;18.32;30.49
47785;BME280;35233;55.686;37.848;2024-02-23T03:12:22;100017.66;;;18.31;30.52
47785;BME280;35233;55.686;37.848;2024-02-23T03:14:48;100021.13;;;18.33;30.68
47785;BME280;35233;55.686;37.848;2024-02-23T03:17:13;100022.94;;;18.33;30.42
47785;BME280;35233;55.686;37.848;2024-02-23T03:19:39;100030.00;;;18.34;30.40
47785;BME280;35233;55.686;37.848;2024-02-23T03:22:05;100034.50;;;18.33;30.51
47785;BME280;35233;55.686;37.848;2024-02-23T03:24:30;100036.31;;;18.33;30.50
47785;BME280;35233;55.686;37.848;2024-02-23T03:26:56;100033.47;;;18.36;30.45
47785;BME280;35233;55.686;37.848;2024-02-23T03:29:22;100038.03;;;18.34;30.43
47785;BME280;35233;55.686;37.848;2024-02-23T03:31:55;100043.38;;;18.34;30.50
47785;BME280;35233;55.686;37.848;2024-02-23T03:34:21;100033.69;;;18.31;30.42
47785;BME280;35233;55.686;37.848;2024-02-23T03:36:46;100043.38;;;18.34;30.37
47785;BME280;35233;55.686;37.848;2024-02-23T03:39:12;100052.19;;;18.36;30.48
47785;BME280;35233;55.686;37.848;2024-02-23T03:41:38;100051.34;;;18.36;30.56
47785;BME280;35233;55.686;37.848;2024-02-23T03:44:03;100050.53;;;18.33;30.38
47785;BME280;35233;55.686;37.848;2024-02-23T03:46:29;100048.66;;;18.36;30.40
47785;BME280;35233;55.686;37.848;2024-02-23T03:48:54;100048.56;;;18.37;30.40
47785;BME280;35233;55.686;37.848;2024-02-23T03:51:20;100048.72;;;18.34;30.49
47785;BME280;35233;55.686;37.848;2024-02-23T03:53:46;100044.94;;;18.38;30.54
47785;BME280;35233;55.686;37.848;2024-02-23T03:56:12;100044.84;;;18.40;30.40
47785;BME280;35233;55.686;37.848;2024-02-23T03:58:38;100039.50;;;18.40;30.23
47785;BME280;35233;55.686;37.848;2024-02-23T04:01:03;100035.88;;;18.41;30.30
47785;BME280;35233;55.686;37.848;2024-02-23T04:03:29;100045.53;;;18.43;30.36
47785;BME280;35233;55.686;37.848;2024-02-23T04:05:54;100050.03;;;18.43;30.42
47785;BME280;35233;55.686;37.848;2024-02-23T04:08:20;100043.13;;;18.39;30.39
47785;BME280;35233;55.686;37.848;2024-02-23T04:10:46;100041.50;;;18.36;30.37
47785;BME280;35233;55.686;37.848;2024-02-23T04:13:11;100030.84;;;18.35;30.43
47785;BME280;35233;55.686;37.848;2024-02-23T04:15:39;100044.00;;;18.39;30.41
47785;BME280;35233;55.686;37.848;2024-02-23T04:18:06;100055.78;;;18.35;30.40
47785;BME280;35233;55.686;37.848;2024-02-23T04:20:31;100054.59;;;18.41;30.43
47785;BME280;35233;55.686;37.848;2024-02-23T04:22:58;100064.44;;;18.40;30.13
47785;BME280;35233;55.686;37.848;2024-02-23T04:25:24;100071.84;;;18.35;30.28
47785;BME280;35233;55.686;37.848;2024-02-23T04:27:49;100067.91;;;18.42;30.30
47785;BME280;35233;55.686;37.848;2024-02-23T04:30:15;100041.31;;;18.39;30.36
47785;BME280;35233;55.686;37.848;2024-02-23T04:32:40;100053.91;;;18.37;30.32
47785;BME280;35233;55.686;37.848;2024-02-23T04:35:07;100062.78;;;18.38;30.40
47785;BME280;35233;55.686;37.848;2024-02-23T04:37:33;100059.19;;;18.39;30.53
47785;BME280;35233;55.686;37.848;2024-02-23T04:39:59;100055.63;;;18.38;30.42
47785;BME280;35233;55.686;37.848;2024-02-23T04:42:25;100065.41;;;18.39;30.52
47785;BME280;35233;55.686;37.848;2024-02-23T04:44:50;100069.72;;;18.42;30.33
47785;BME280;35233;55.686;37.848;2024-02-23T04:47:18;100066.25;;;18.40;30.48
47785;BME280;35233;55.686;37.848;2024-02-23T04:49:43;100048.22;;;18.43;30.42
47785;BME280;35233;55.686;37.848;2024-02-23T04:52:09;100036.13;;;18.36;30.29
47785;BME280;35233;55.686;37.848;2024-02-23T04:54:34;100051.22;;;18.37;30.29
47785;BME280;35233;55.686;37.848;2024-02-23T04:57:00;100054.88;;;18.36;30.36
47785;BME280;35233;55.686;37.848;2024-02-23T04:59:26;100074.28;;;18.40;30.40
47785;BME280;35233;55.686;37.848;2024-02-23T05:01:51;100080.75;;;18.36;30.31
47785;BME280;35233;55.686;37.848;2024-02-23T05:04:17;100073.59;;;18.36;30.48
47785;BME280;35233;55.686;37.848;2024-02-23T05:06:43;100077.81;;;18.40;30.39
47785;BME280;35233;55.686;37.848;2024-02-23T05:09:09;100076.09;;;18.39;30.29
47785;BME280;35233;55.686;37.848;2024-02-23T05:11:35;100075.84;;;18.44;30.36
47785;BME280;35233;55.686;37.848;2024-02-23T05:14:00;100072.47;;;18.40;30.37
47785;BME280;35233;55.686;37.848;2024-02-23T05:16:26;100086.47;;;18.45;30.26
47785;BME280;35233;55.686;37.848;2024-02-23T05:18:51;100083.84;;;18.44;30.27
47785;BME280;35233;55.686;37.848;2024-02-23T05:21:17;100084.75;;;18.44;30.25
47785;BME280;35233;55.686;37.848;2024-02-23T05:23:43;100093.53;;;18.46;30.13
47785;BME280;35233;55.686;37.848;2024-02-23T05:26:08;100095.28;;;18.47;30.41
47785;BME280;35233;55.686;37.848;2024-02-23T05:28:34;100087.16;;;18.49;30.38
47785;BME280;35233;55.686;37.848;2024-02-23T05:31:02;100068.13;;;18.38;30.36
47785;BME280;35233;55.686;37.848;2024-02-23T05:33:29;100090.09;;;18.44;30.43
47785;BME280;35233;55.686;37.848;2024-02-23T05:35:54;100080.84;;;18.50;30.62
47785;BME280;35233;55.686;37.848;2024-02-23T05:38:20;100090.69;;;18.49;30.57
47785;BME280;35233;55.686;37.848;2024-02-23T05:40:45;100079.41;;;18.44;30.67
47785;BME280;35233;55.686;37.848;2024-02-23T05:43:12;100090.63;;;18.51;30.81
47785;BME280;35233;55.686;37.848;2024-02-23T05:45:38;100099.56;;;18.50;30.75
47785;BME280;35233;55.686;37.848;2024-02-23T05:48:03;100100.63;;;18.47;30.72
47785;BME280;35233;55.686;37.848;2024-02-23T05:50:29;100096.13;;;18.48;30.85
47785;BME280;35233;55.686;37.848;2024-02-23T05:52:55;100112.09;;;18.49;30.92
47785;BME280;35233;55.686;37.848;2024-02-23T05:55:20;100097.84;;;18.49;31.26
47785;BME280;35233;55.686;37.848;2024-02-23T05:57:46;100110.44;;;18.47;31.48
47785;BME280;35233;55.686;37.848;2024-02-23T06:00:12;100113.91;;;18.49;31.60
47785;BME280;35233;55.686;37.848;2024-02-23T06:02:38;100116.59;;;18.49;31.79
47785;BME280;35233;55.686;37.848;2024-02-23T06:05:04;100113.06;;;18.48;31.85
47785;BME280;35233;55.686;37.848;2024-02-23T06:07:33;100107.69;;;18.48;31.99
47785;BME280;35233;55.686;37.848;2024-02-23T06:10:00;100109.19;;;18.54;31.96
47785;BME280;35233;55.686;37.848;2024-02-23T06:15:10;100115.31;;;18.56;32.11
47785;BME280;35233;55.686;37.848;2024-02-23T06:17:35;100104.69;;;18.54;32.04
47785;BME280;35233;55.686;37.848;2024-02-23T06:20:10;100109.88;;;18.58;31.84
47785;BME280;35233;55.686;37.848;2024-02-23T06:22:36;100123.34;;;18.56;31.97
47785;BME280;35233;55.686;37.848;2024-02-23T06:25:02;100132.13;;;18.58;32.04
47785;BME280;35233;55.686;37.848;2024-02-23T06:27:28;100121.69;;;18.53;32.19
47785;BME280;35233;55.686;37.848;2024-02-23T06:29:54;100126.78;;;18.58;32.33
47785;BME280;35233;55.686;37.848;2024-02-23T06:32:20;100127.06;;;18.53;32.49
47785;BME280;35233;55.686;37.848;2024-02-23T06:34:46;100131.22;;;18.59;32.54
47785;BME280;35233;55.686;37.848;2024-02-23T06:37:12;100133.16;;;18.55;32.36
47785;BME280;35233;55.686;37.848;2024-02-23T06:39:39;100131.13;;;18.61;32.44
47785;BME280;35233;55.686;37.848;2024-02-23T06:42:04;100129.28;;;18.61;32.59
47785;BME280;35233;55.686;37.848;2024-02-23T06:44:30;100138.13;;;18.63;32.48
47785;BME280;35233;55.686;37.848;2024-02-23T06:46:56;100132.75;;;18.63;32.51
47785;BME280;35233;55.686;37.848;2024-02-23T06:49:21;100136.22;;;18.65;32.54
47785;BME280;35233;55.686;37.848;2024-02-23T06:51:47;100136.06;;;18.68;32.32
47785;BME280;35233;55.686;37.848;2024-02-23T06:54:13;100135.28;;;18.66;32.36
47785;BME280;35233;55.686;37.848;2024-02-23T06:56:41;100139.59;;;18.69;32.33
47785;BME280;35233;55.686;37.848;2024-02-23T06:59:06;100140.56;;;18.68;32.14
47785;BME280;35233;55.686;37.848;2024-02-23T07:01:32;100143.31;;;18.66;32.09
47785;BME280;35233;55.686;37.848;2024-02-23T07:04:00;100144.88;;;18.70;32.13
47785;BME280;35233;55.686;37.848;2024-02-23T07:06:26;100145.75;;;18.71;32.14
47785;BME280;35233;55.686;37.848;2024-02-23T07:08:53;100148.66;;;18.66;32.23
47785;BME280;35233;55.686;37.848;2024-02-23T07:11:20;100148.41;;;18.71;32.13
47785;BME280;35233;55.686;37.848;2024-02-23T07:13:45;100143.22;;;18.68;32.06
47785;BME280;35233;55.686;37.848;2024-02-23T07:16:14;100153.78;;;18.71;32.09
47785;BME280;35233;55.686;37.848;2024-02-23T07:18:42;100141.16;;;18.73;32.08
47785;BME280;35233;55.686;37.848;2024-02-23T07:21:16;100152.81;;;18.72;31.98
47785;BME280;35233;55.686;37.848;2024-02-23T07:23:45;100147.47;;;18.72;31.97
47785;BME280;35233;55.686;37.848;2024-02-23T07:26:10;100144.00;;;18.70;31.93
47785;BME280;35233;55.686;37.848;2024-02-23T07:28:36;100136.84;;;18.70;31.64
47785;BME280;35233;55.686;37.848;2024-02-23T07:31:01;100140.25;;;18.74;31.88
47785;BME280;35233;55.686;37.848;2024-02-23T07:33:27;100148.41;;;18.71;31.56
47785;BME280;35233;55.686;37.848;2024-02-23T07:35:53;100150.25;;;18.70;31.72
47785;BME280;35233;55.686;37.848;2024-02-23T07:38:18;100151.97;;;18.71;31.72
47785;BME280;35233;55.686;37.848;2024-02-23T07:40:44;100154.53;;;18.73;31.62
47785;BME280;35233;55.686;37.848;2024-02-23T07:43:10;100152.50;;;18.78;31.36
47785;BME280;35233;55.686;37.848;2024-02-23T07:45:39;100160.63;;;18.76;31.60
47785;BME280;35233;55.686;37.848;2024-02-23T07:48:05;100164.88;;;18.81;31.63
47785;BME280;35233;55.686;37.848;2024-02-23T07:50:30;100159.28;;;18.85;31.77
47785;BME280;35233;55.686;37.848;2024-02-23T07:52:56;100155.63;;;18.86;31.82
47785;BME280;35233;55.686;37.848;2024-02-23T07:55:22;100149.59;;;18.83;31.91
47785;BME280;35233;55.686;37.848;2024-02-23T07:57:47;100156.09;;;18.94;31.83
47785;BME280;35233;55.686;37.848;2024-02-23T08:00:14;100163.09;;;18.97;31.65
47785;BME280;35233;55.686;37.848;2024-02-23T08:02:42;100154.03;;;18.99;31.96
47785;BME280;35233;55.686;37.848;2024-02-23T08:05:08;100154.03;;;18.99;31.87
47785;BME280;35233;55.686;37.848;2024-02-23T08:07:33;100155.81;;;18.99;31.78
47785;BME280;35233;55.686;37.848;2024-02-23T08:10:08;100152.97;;;19.02;31.68
47785;BME280;35233;55.686;37.848;2024-02-23T08:12:37;100167.31;;;19.01;31.83
47785;BME280;35233;55.686;37.848;2024-02-23T08:15:02;100164.66;;;19.01;31.67
47785;BME280;35233;55.686;37.848;2024-02-23T08:17:29;100169.13;;;19.00;31.69
47785;BME280;35233;55.686;37.848;2024-02-23T08:19:54;100173.47;;;19.03;31.56
47785;BME280;35233;55.686;37.848;2024-02-23T08:22:20;100161.78;;;19.04;31.51
47785;BME280;35233;55.686;37.848;2024-02-23T08:24:45;100170.53;;;19.08;31.66
47785;BME280;35233;55.686;37.848;2024-02-23T08:27:11;100170.53;;;19.08;31.66
47785;BME280;35233;55.686;37.848;2024-02-23T08:29:40;100168.00;;;19.05;31.72
47785;BME280;35233;55.686;37.848;2024-02-23T08:32:07;100166.47;;;19.00;31.61
47785;BME280;35233;55.686;37.848;2024-02-23T08:34:33;100176.22;;;19.02;31.54
47785;BME280;35233;55.686;37.848;2024-02-23T08:37:01;100170.78;;;19.03;31.72
47785;BME280;35233;55.686;37.848;2024-02-23T08:39:28;100180.53;;;19.04;31.68
47785;BME280;35233;55.686;37.848;2024-02-23T08:41:54;100186.59;;;19.08;31.82
47785;BME280;35233;55.686;37.848;2024-02-23T08:44:20;100179.34;;;19.10;31.82
47785;BME280;35233;55.686;37.848;2024-02-23T08:46:47;100188.91;;;19.14;31.71
47785;BME280;35233;55.686;37.848;2024-02-23T08:49:13;100183.50;;;19.15;31.64
47785;BME280;35233;55.686;37.848;2024-02-23T08:51:44;100183.31;;;19.18;31.64
47785;BME280;35233;55.686;37.848;2024-02-23T08:54:10;100200.44;;;19.16;31.78
47785;BME280;35233;55.686;37.848;2024-02-23T08:56:38;100192.50;;;19.14;31.62
47785;BME280;35233;55.686;37.848;2024-02-23T08:59:05;100186.09;;;19.17;31.64
47785;BME280;35233;55.686;37.848;2024-02-23T09:01:30;100189.88;;;19.13;31.54
47785;BME280;35233;55.686;37.848;2024-02-23T09:03:56;100190.66;;;19.15;31.64
47785;BME280;35233;55.686;37.848;2024-02-23T09:06:22;100194.81;;;19.20;31.79
47785;BME280;35233;55.686;37.848;2024-02-23T09:08:47;100195.84;;;19.18;31.65
47785;BME280;35233;55.686;37.848;2024-02-23T09:11:13;100193.97;;;19.20;31.46
47785;BME280;35233;55.686;37.848;2024-02-23T09:13:40;100202.94;;;19.19;31.71
47785;BME280;35233;55.686;37.848;2024-02-23T09:16:07;100194.03;;;19.18;31.78
47785;BME280;35233;55.686;37.848;2024-02-23T09:18:34;100203.88;;;19.18;31.66
47785;BME280;35233;55.686;37.848;2024-02-23T09:21:00;100196.72;;;19.50;31.68
47785;BME280;35233;55.686;37.848;2024-02-23T09:23:26;100196.94;;;19.79;31.37
47785;BME280;35233;55.686;37.848;2024-02-23T09:25:51;100192.56;;;19.92;31.38
47785;BME280;35233;55.686;37.848;2024-02-23T09:28:17;100199.44;;;18.85;32.39
47785;BME280;35233;55.686;37.848;2024-02-23T09:30:43;100205.19;;;18.08;33.12
47785;BME280;35233;55.686;37.848;2024-02-23T09:33:08;100209.09;;;17.83;33.34
47785;BME280;35233;55.686;37.848;2024-02-23T09:35:34;100209.78;;;17.68;33.16
47785;BME280;35233;55.686;37.848;2024-02-23T09:38:00;100212.22;;;17.55;33.31
47785;BME280;35233;55.686;37.848;2024-02-23T09:40:26;100213.66;;;17.43;33.34
47785;BME280;35233;55.686;37.848;2024-02-23T09:42:56;100217.63;;;17.35;33.23
47785;BME280;35233;55.686;37.848;2024-02-23T09:45:24;100216.06;;;17.31;33.38
47785;BME280;35233;55.686;37.848;2024-02-23T09:47:53;100215.69;;;17.19;33.36
47785;BME280;35233;55.686;37.848;2024-02-23T09:50:22;100218.56;;;17.15;33.16
47785;BME280;35233;55.686;37.848;2024-02-23T09:52:48;100209.03;;;17.09;33.35
47785;BME280;35233;55.686;37.848;2024-02-23T09:55:16;100219.06;;;17.04;33.32
47785;BME280;35233;55.686;37.848;2024-02-23T09:57:44;100206.78;;;17.00;33.25
47785;BME280;35233;55.686;37.848;2024-02-23T10:00:10;100214.94;;;16.97;33.39
47785;BME280;35233;55.686;37.848;2024-02-23T10:02:36;100218.63;;;16.94;33.31
47785;BME280;35233;55.686;37.848;2024-02-23T10:05:02;100204.59;;;16.89;33.27
47785;BME280;35233;55.686;37.848;2024-02-23T10:07:28;100209.22;;;16.86;33.53
47785;BME280;35233;55.686;37.848;2024-02-23T10:09:54;100214.91;;;16.78;33.49
47785;BME280;35233;55.686;37.848;2024-02-23T10:12:22;100217.66;;;16.77;33.51
47785;BME280;35233;55.686;37.848;2024-02-23T10:14:48;100221.28;;;16.74;33.61
47785;BME280;35233;55.686;37.848;2024-02-23T10:17:14;100217.66;;;16.77;33.69
47785;BME280;35233;55.686;37.848;2024-02-23T10:19:40;100224.09;;;16.71;33.49
47785;BME280;35233;55.686;37.848;2024-02-23T10:22:05;100218.03;;;16.67;33.68
47785;BME280;35233;55.686;37.848;2024-02-23T10:24:31;100223.50;;;16.64;33.55
47785;BME280;35233;55.686;37.848;2024-02-23T10:27:07;100218.03;;;16.67;33.65
47785;BME280;35233;55.686;37.848;2024-02-23T10:29:38;100217.28;;;16.64;33.63
47785;BME280;35233;55.686;37.848;2024-02-23T10:32:05;100219.84;;;16.67;33.68
47785;BME280;35233;55.686;37.848;2024-02-23T10:34:34;100222.28;;;16.71;33.62
47785;BME280;35233;55.686;37.848;2024-02-23T10:37:03;100225.09;;;16.68;33.64
47785;BME280;35233;55.686;37.848;2024-02-23T10:39:32;100212.69;;;16.67;33.69
47785;BME280;35233;55.686;37.848;2024-02-23T10:42:03;100222.69;;;16.62;33.80
47785;BME280;35233;55.686;37.848;2024-02-23T10:44:30;100215.81;;;16.57;33.88
47785;BME280;35233;55.686;37.848;2024-02-23T10:46:58;100224.78;;;16.56;33.93
47785;BME280;35233;55.686;37.848;2024-02-23T10:49:24;100223.09;;;16.53;33.77
47785;BME280;35233;55.686;37.848;2024-02-23T10:51:54;100221.63;;;16.46;33.94
47785;BME280;35233;55.686;37.848;2024-02-23T10:54:20;100234.09;;;16.45;33.82
47785;BME280;35233;55.686;37.848;2024-02-23T10:56:50;100233.41;;;16.40;34.09
47785;BME280;35233;55.686;37.848;2024-02-23T10:59:17;100236.97;;;16.41;34.08
47785;BME280;35233;55.686;37.848;2024-02-23T11:01:57;100233.38;;;16.42;33.84
47785;BME280;35233;55.686;37.848;2024-02-23T11:04:26;100250.22;;;16.42;34.11
47785;BME280;35233;55.686;37.848;2024-02-23T11:06:54;100226.53;;;16.35;34.16
47785;BME280;35233;55.686;37.848;2024-02-23T11:09:22;100245.09;;;16.38;34.05
47785;BME280;35233;55.686;37.848;2024-02-23T11:11:56;100249.53;;;16.37;34.11
47785;BME280;35233;55.686;37.848;2024-02-23T11:14:35;100252.22;;;16.37;34.25
47785;BME280;35233;55.686;37.848;2024-02-23T11:17:02;100255.97;;;16.33;34.16
47785;BME280;35233;55.686;37.848;2024-02-23T11:19:35;100260.28;;;16.36;34.21
47785;BME280;35233;55.686;37.848;2024-02-23T11:22:02;100248.78;;;16.35;34.30
47785;BME280;35233;55.686;37.848;2024-02-23T11:24:29;100254.88;;;16.37;34.21
47785;BME280;35233;55.686;37.848;2024-02-23T11:26:57;100249.75;;;16.33;34.17
47785;BME280;35233;55.686;37.848;2024-02-23T11:29:26;100255.16;;;16.31;34.21
47785;BME280;35233;55.686;37.848;2024-02-23T11:31:53;100261.59;;;16.25;34.28
47785;BME280;35233;55.686;37.848;2024-02-23T11:34:26;100266.88;;;16.27;34.17
47785;BME280;35233;55.686;37.848;2024-02-23T11:36:52;100261.72;;;16.22;34.29
47785;BME280;35233;55.686;37.848;2024-02-23T11:39:23;100247.06;;;16.12;34.01
47785;BME280;35233;55.686;37.848;2024-02-23T11:41:49;100254.72;;;16.20;34.38
47785;BME280;35233;55.686;37.848;2024-02-23T11:44:15;100269.81;;;16.21;34.05
47785;BME280;35233;55.686;37.848;2024-02-23T11:46:43;100270.00;;;16.16;34.41
47785;BME280;35233;55.686;37.848;2024-02-23T11:49:10;100263.63;;;16.20;34.39
47785;BME280;35233;55.686;37.848;2024-02-23T11:51:36;100265.25;;;16.23;34.39
47785;BME280;35233;55.686;37.848;2024-02-23T11:54:02;100262.59;;;16.23;34.30
47785;BME280;35233;55.686;37.848;2024-02-23T11:56:29;100260.94;;;16.20;34.47
47785;BME280;35233;55.686;37.848;2024-02-23T11:58:55;100261.81;;;16.21;34.30
47785;BME280;35233;55.686;37.848;2024-02-23T12:01:21;100270.94;;;16.15;34.57
47785;BME280;35233;55.686;37.848;2024-02-23T12:03:47;100262.97;;;16.14;34.70
47785;BME280;35233;55.686;37.848;2024-02-23T12:06:14;100249.06;;;16.07;34.51
47785;BME280;35233;55.686;37.848;2024-02-23T12:08:45;100263.78;;;16.16;34.75
47785;BME280;35233;55.686;37.848;2024-02-23T12:11:12;100270.38;;;16.07;34.72
47785;BME280;35233;55.686;37.848;2024-02-23T12:13:41;100268.44;;;16.11;34.62
47785;BME280;35233;55.686;37.848;2024-02-23T12:16:08;100260.66;;;16.06;34.94
47785;BME280;35233;55.686;37.848;2024-02-23T12:18:35;100268.78;;;16.03;34.65
47785;BME280;35233;55.686;37.848;2024-02-23T12:21:02;100271.44;;;16.03;34.71
47785;BME280;35233;55.686;37.848;2024-02-23T12:23:42;100273.97;;;16.06;35.20
47785;BME280;35233;55.686;37.848;2024-02-23T12:26:08;100269.75;;;16.00;35.09
47785;BME280;35233;55.686;37.848;2024-02-23T12:28:34;100278.75;;;15.98;34.84
47785;BME280;35233;55.686;37.848;2024-02-23T12:31:01;100279.66;;;15.97;35.23
47785;BME280;35233;55.686;37.848;2024-02-23T12:33:28;100268.00;;;15.99;35.12
47785;BME280;35233;55.686;37.848;2024-02-23T12:35:58;100269.88;;;15.97;35.07
47785;BME280;35233;55.686;37.848;2024-02-23T12:38:24;100281.72;;;15.90;35.15
47785;BME280;35233;55.686;37.848;2024-02-23T12:40:50;100281.53;;;15.95;35.12